Puerto Barrios Airport
MGPB : now visible

Airfield :











YOU CAN JOIN US ON...

 
LOGIN :

Register | Disclaimer

   EN    FR    IT 

 









Legend :    VFR   Marginal VFR   IFR   Intensive IFR   Very Intensive IFR
Visi :
Ceiling :
>= 8 km
>= 3000ft
5 to 8 km
1000 to 3000 ft
1500m to 5 km
500 to 1000 ft
800 to 1500m
200 to 500 ft
< 800m
< 200 ft
Symbols :   Thunderstorms  Fog  Heavy snow  Heavy precipitations  Wind > 20 kt






- Airport Elevation : 33 ft
- IATA code : PBR


MGPB - Puerto Barrios

CURRENT METAR :
  • 061800Z 00000KT 9999 SCT020 27/22 Q1018 A3006

EXPIRED METARs :
  • 061700Z 30004KT 9999 SCT018 27/23 Q1018 A3006
  • 061600Z 00000KT 9999 FEW018 26/22 Q1019 A3009
  • 061500Z 18004KT 9999 FEW018 25/22 Q1019 A3009

TAF MGPB
Valid from the 06 at 18:00 until the 07 at 18:00 UTC


061700Z 0618/0718 36008KT 9999 SCT018 TX29/0620Z TN21/0712Z
BECMG 0619/0621 06010KT SCT020
BECMG 0700/0702 00000KT SCT016
TEMPO 0702/0712 RADZ BKN016
BECMG 0715/0717 36008KT SCT018



MET'MAP, your aeronautical weather chart ! - Copyright ORBIFLY December 2007 - Disclaimer

ORBIFLY MET'MAP TEAM :

Programming & Development : Alexandra Zaïnal
Concept & original design : Baudouin d'Aumeries
Assistance for programming : Marc-Olivier Méhu
Technical & hardware support : Manuel Goepfert

Contact : metmap@orbifly.com




SOURCES & CREDITS :

   NOAA       Earth
Advisory